Greenwood, Virginia
Current Conditions -  °F | °C
As of 6:15 AM on Friday 24 Oct 2014 (Local Time) from KW13 Reporting Station
Clear Clear  
Wind Chill: 41°   Ceiling: Unl
Heat Index: 46°   Visibility: 10mi
Dew Point: 39°   Wind: 8mph
Humidity: 78%   Direction: 250°WSW
Pressure: 30.02"   Gusts: NA
Location:  38.05°N, 78.77°W
Report Text: KW13 241015Z AUTO 25007KT 10SM CLR 08/04 A3002 RMK AO1 T00750038
Loading
Personal Weather Stations






























Interactive Weather Map
Tropical Storm Tracking
New forecast layout! Learn more

10-Day Weather Forecast

Advertisements
Track Severe Weather on mobile